sensor_id;sensor_type;location;lat;lon;timestamp;temperature;humidity
16229;DHT22;8222;51.462;12.630;2024-03-22T00:01:46;9.30;99.90
16229;DHT22;8222;51.462;12.630;2024-03-22T00:04:17;9.30;99.90
16229;DHT22;8222;51.462;12.630;2024-03-22T00:06:48;9.10;99.90
16229;DHT22;8222;51.462;12.630;2024-03-22T00:09:15;9.20;99.90
16229;DHT22;8222;51.462;12.630;2024-03-22T00:11:41;9.00;99.90
16229;DHT22;8222;51.462;12.630;2024-03-22T00:14:08;8.90;99.90
16229;DHT22;8222;51.462;12.630;2024-03-22T00:16:34;8.80;99.90
16229;DHT22;8222;51.462;12.630;2024-03-22T00:19:02;8.80;99.90
16229;DHT22;8222;51.462;12.630;2024-03-22T00:21:30;8.70;99.90
16229;DHT22;8222;51.462;12.630;2024-03-22T00:23:58;8.70;99.90
16229;DHT22;8222;51.462;12.630;2024-03-22T00:26:27;8.70;99.90
16229;DHT22;8222;51.462;12.630;2024-03-22T00:28:52;8.80;99.90
16229;DHT22;8222;51.462;12.630;2024-03-22T00:31:18;8.90;99.90
16229;DHT22;8222;51.462;12.630;2024-03-22T00:33:44;8.80;99.90
16229;DHT22;8222;51.462;12.630;2024-03-22T00:36:10;9.60;99.90
16229;DHT22;8222;51.462;12.630;2024-03-22T00:38:38;8.70;99.90
16229;DHT22;8222;51.462;12.630;2024-03-22T00:41:06;8.70;99.90
16229;DHT22;8222;51.462;12.630;2024-03-22T00:43:34;8.70;99.90
16229;DHT22;8222;51.462;12.630;2024-03-22T00:46:02;8.60;99.90
16229;DHT22;8222;51.462;12.630;2024-03-22T00:48:30;8.60;99.90
16229;DHT22;8222;51.462;12.630;2024-03-22T00:50:58;8.60;99.90
16229;DHT22;8222;51.462;12.630;2024-03-22T00:53:26;8.70;99.90
16229;DHT22;8222;51.462;12.630;2024-03-22T00:55:53;8.50;99.90
16229;DHT22;8222;51.462;12.630;2024-03-22T00:58:19;8.50;99.90
16229;DHT22;8222;51.462;12.630;2024-03-22T01:00:46;8.50;99.90
16229;DHT22;8222;51.462;12.630;2024-03-22T01:03:14;8.50;99.90
16229;DHT22;8222;51.462;12.630;2024-03-22T01:05:42;8.70;99.90
16229;DHT22;8222;51.462;12.630;2024-03-22T01:08:12;8.40;99.90
16229;DHT22;8222;51.462;12.630;2024-03-22T01:10:40;8.30;99.90
16229;DHT22;8222;51.462;12.630;2024-03-22T01:13:08;8.40;99.90
16229;DHT22;8222;51.462;12.630;2024-03-22T01:15:34;8.40;99.90
16229;DHT22;8222;51.462;12.630;2024-03-22T01:18:05;8.30;99.90
16229;DHT22;8222;51.462;12.630;2024-03-22T01:20:33;8.30;99.90
16229;DHT22;8222;51.462;12.630;2024-03-22T01:23:00;8.30;99.90
16229;DHT22;8222;51.462;12.630;2024-03-22T01:25:28;8.30;99.90
16229;DHT22;8222;51.462;12.630;2024-03-22T01:27:54;8.30;99.90
16229;DHT22;8222;51.462;12.630;2024-03-22T01:30:25;8.40;99.90
16229;DHT22;8222;51.462;12.630;2024-03-22T01:32:56;8.40;99.90
16229;DHT22;8222;51.462;12.630;2024-03-22T01:35:22;8.40;99.90
16229;DHT22;8222;51.462;12.630;2024-03-22T01:37:50;8.40;99.90
16229;DHT22;8222;51.462;12.630;2024-03-22T01:40:18;8.70;99.90
16229;DHT22;8222;51.462;12.630;2024-03-22T01:42:44;8.50;99.90
16229;DHT22;8222;51.462;12.630;2024-03-22T01:45:14;8.60;99.90
16229;DHT22;8222;51.462;12.630;2024-03-22T01:47:41;8.50;99.90
16229;DHT22;8222;51.462;12.630;2024-03-22T01:50:09;8.50;99.90
16229;DHT22;8222;51.462;12.630;2024-03-22T01:52:42;8.60;99.90
16229;DHT22;8222;51.462;12.630;2024-03-22T01:55:11;8.60;99.90
16229;DHT22;8222;51.462;12.630;2024-03-22T01:57:38;8.60;99.90
16229;DHT22;8222;51.462;12.630;2024-03-22T02:00:07;8.60;99.90
16229;DHT22;8222;51.462;12.630;2024-03-22T02:02:34;8.70;99.90
16229;DHT22;8222;51.462;12.630;2024-03-22T02:05:10;8.70;99.90
16229;DHT22;8222;51.462;12.630;2024-03-22T02:07:38;8.70;99.90
16229;DHT22;8222;51.462;12.630;2024-03-22T02:10:04;8.70;99.90
16229;DHT22;8222;51.462;12.630;2024-03-22T02:12:30;8.70;99.90
16229;DHT22;8222;51.462;12.630;2024-03-22T02:14:58;8.70;99.90
16229;DHT22;8222;51.462;12.630;2024-03-22T02:17:24;8.70;99.90
16229;DHT22;8222;51.462;12.630;2024-03-22T02:19:52;8.70;99.90
16229;DHT22;8222;51.462;12.630;2024-03-22T02:22:20;8.70;99.90
16229;DHT22;8222;51.462;12.630;2024-03-22T02:24:46;9.00;99.90
16229;DHT22;8222;51.462;12.630;2024-03-22T02:27:11;8.80;99.90
16229;DHT22;8222;51.462;12.630;2024-03-22T02:29:37;8.80;99.90
16229;DHT22;8222;51.462;12.630;2024-03-22T02:32:06;8.70;99.90
16229;DHT22;8222;51.462;12.630;2024-03-22T02:34:31;8.60;99.90
16229;DHT22;8222;51.462;12.630;2024-03-22T02:36:59;8.60;99.90
16229;DHT22;8222;51.462;12.630;2024-03-22T02:39:27;8.70;99.90
16229;DHT22;8222;51.462;12.630;2024-03-22T02:41:54;8.70;99.90
16229;DHT22;8222;51.462;12.630;2024-03-22T02:44:20;8.70;99.90
16229;DHT22;8222;51.462;12.630;2024-03-22T02:46:48;8.70;99.90
16229;DHT22;8222;51.462;12.630;2024-03-22T02:49:14;8.70;99.90
16229;DHT22;8222;51.462;12.630;2024-03-22T02:51:39;8.70;99.90
16229;DHT22;8222;51.462;12.630;2024-03-22T02:54:05;9.00;99.90
16229;DHT22;8222;51.462;12.630;2024-03-22T02:56:35;9.10;99.90
16229;DHT22;8222;51.462;12.630;2024-03-22T02:59:01;8.80;99.90
16229;DHT22;8222;51.462;12.630;2024-03-22T03:01:26;8.80;99.90
16229;DHT22;8222;51.462;12.630;2024-03-22T03:03:57;8.80;99.90
16229;DHT22;8222;51.462;12.630;2024-03-22T03:06:24;9.00;99.90
16229;DHT22;8222;51.462;12.630;2024-03-22T03:08:50;9.40;99.90
16229;DHT22;8222;51.462;12.630;2024-03-22T03:11:18;8.90;99.90
16229;DHT22;8222;51.462;12.630;2024-03-22T03:13:44;8.90;99.90
16229;DHT22;8222;51.462;12.630;2024-03-22T03:16:14;9.00;99.90
16229;DHT22;8222;51.462;12.630;2024-03-22T03:18:40;8.90;99.90
16229;DHT22;8222;51.462;12.630;2024-03-22T03:21:06;8.90;99.90
16229;DHT22;8222;51.462;12.630;2024-03-22T03:23:32;8.90;99.90
16229;DHT22;8222;51.462;12.630;2024-03-22T03:25:57;8.90;99.90
16229;DHT22;8222;51.462;12.630;2024-03-22T03:28:25;9.00;99.90
16229;DHT22;8222;51.462;12.630;2024-03-22T03:30:56;9.00;99.90
16229;DHT22;8222;51.462;12.630;2024-03-22T03:33:26;9.10;99.90
16229;DHT22;8222;51.462;12.630;2024-03-22T03:35:52;9.00;99.90
16229;DHT22;8222;51.462;12.630;2024-03-22T03:38:19;9.10;99.90
16229;DHT22;8222;51.462;12.630;2024-03-22T03:40:51;9.10;99.90
16229;DHT22;8222;51.462;12.630;2024-03-22T03:43:16;9.10;99.90
16229;DHT22;8222;51.462;12.630;2024-03-22T03:45:44;9.10;99.90
16229;DHT22;8222;51.462;12.630;2024-03-22T03:48:12;9.10;99.90
16229;DHT22;8222;51.462;12.630;2024-03-22T03:50:38;9.20;99.90
16229;DHT22;8222;51.462;12.630;2024-03-22T03:53:06;9.10;99.90
16229;DHT22;8222;51.462;12.630;2024-03-22T03:55:34;9.20;99.90
16229;DHT22;8222;51.462;12.630;2024-03-22T03:58:02;9.20;99.90
16229;DHT22;8222;51.462;12.630;2024-03-22T04:00:31;9.20;99.90
16229;DHT22;8222;51.462;12.630;2024-03-22T04:02:56;9.30;99.90
16229;DHT22;8222;51.462;12.630;2024-03-22T04:05:22;9.40;99.90
16229;DHT22;8222;51.462;12.630;2024-03-22T04:07:50;9.40;99.90
16229;DHT22;8222;51.462;12.630;2024-03-22T04:10:18;9.30;99.90
16229;DHT22;8222;51.462;12.630;2024-03-22T04:12:45;9.30;99.90
16229;DHT22;8222;51.462;12.630;2024-03-22T04:15:10;10.00;99.90
16229;DHT22;8222;51.462;12.630;2024-03-22T04:17:38;9.20;99.90
16229;DHT22;8222;51.462;12.630;2024-03-22T04:20:04;9.20;99.90
16229;DHT22;8222;51.462;12.630;2024-03-22T04:22:32;9.20;99.90
16229;DHT22;8222;51.462;12.630;2024-03-22T04:25:03;9.20;99.90
16229;DHT22;8222;51.462;12.630;2024-03-22T04:27:35;9.30;99.90
16229;DHT22;8222;51.462;12.630;2024-03-22T04:30:04;9.10;99.90
16229;DHT22;8222;51.462;12.630;2024-03-22T04:32:31;9.10;99.90
16229;DHT22;8222;51.462;12.630;2024-03-22T04:34:57;9.20;99.90
16229;DHT22;8222;51.462;12.630;2024-03-22T04:37:25;9.10;99.90
16229;DHT22;8222;51.462;12.630;2024-03-22T04:39:51;9.30;99.90
16229;DHT22;8222;51.462;12.630;2024-03-22T04:42:16;9.30;99.90
16229;DHT22;8222;51.462;12.630;2024-03-22T04:44:42;9.30;99.90
16229;DHT22;8222;51.462;12.630;2024-03-22T04:47:08;9.30;99.90
16229;DHT22;8222;51.462;12.630;2024-03-22T04:49:33;9.80;99.90
16229;DHT22;8222;51.462;12.630;2024-03-22T04:51:59;9.40;99.90
16229;DHT22;8222;51.462;12.630;2024-03-22T04:54:27;9.50;99.90
16229;DHT22;8222;51.462;12.630;2024-03-22T04:56:54;9.50;99.90
16229;DHT22;8222;51.462;12.630;2024-03-22T04:59:20;9.50;99.90
16229;DHT22;8222;51.462;12.630;2024-03-22T05:01:46;10.00;99.90
16229;DHT22;8222;51.462;12.630;2024-03-22T05:04:11;9.50;99.90
16229;DHT22;8222;51.462;12.630;2024-03-22T05:06:39;9.50;99.90
16229;DHT22;8222;51.462;12.630;2024-03-22T05:09:07;9.50;99.90
16229;DHT22;8222;51.462;12.630;2024-03-22T05:11:35;9.60;99.90
16229;DHT22;8222;51.462;12.630;2024-03-22T05:14:01;9.60;99.90
16229;DHT22;8222;51.462;12.630;2024-03-22T05:16:29;9.50;99.90
16229;DHT22;8222;51.462;12.630;2024-03-22T05:18:57;9.50;99.90
16229;DHT22;8222;51.462;12.630;2024-03-22T05:21:25;9.60;99.90
16229;DHT22;8222;51.462;12.630;2024-03-22T05:23:51;9.50;99.90
16229;DHT22;8222;51.462;12.630;2024-03-22T05:26:18;9.50;99.90
16229;DHT22;8222;51.462;12.630;2024-03-22T05:28:46;9.40;99.90
16229;DHT22;8222;51.462;12.630;2024-03-22T05:31:11;9.50;99.90
16229;DHT22;8222;51.462;12.630;2024-03-22T05:33:37;9.40;99.90
16229;DHT22;8222;51.462;12.630;2024-03-22T05:36:02;9.50;99.90
16229;DHT22;8222;51.462;12.630;2024-03-22T05:38:28;9.50;99.90
16229;DHT22;8222;51.462;12.630;2024-03-22T05:40:56;9.50;99.90
16229;DHT22;8222;51.462;12.630;2024-03-22T05:43:22;9.50;99.90
16229;DHT22;8222;51.462;12.630;2024-03-22T05:45:50;9.50;99.90
16229;DHT22;8222;51.462;12.630;2024-03-22T05:48:18;9.50;99.90
16229;DHT22;8222;51.462;12.630;2024-03-22T05:50:44;9.60;99.90
16229;DHT22;8222;51.462;12.630;2024-03-22T05:53:14;9.60;99.90
16229;DHT22;8222;51.462;12.630;2024-03-22T05:55:42;9.70;99.90
16229;DHT22;8222;51.462;12.630;2024-03-22T05:58:08;9.70;99.90
16229;DHT22;8222;51.462;12.630;2024-03-22T06:00:35;9.70;99.90
16229;DHT22;8222;51.462;12.630;2024-03-22T06:03:03;9.70;99.90
16229;DHT22;8222;51.462;12.630;2024-03-22T06:05:33;9.70;99.90
16229;DHT22;8222;51.462;12.630;2024-03-22T06:07:59;9.80;99.90
16229;DHT22;8222;51.462;12.630;2024-03-22T06:10:29;10.00;99.90
16229;DHT22;8222;51.462;12.630;2024-03-22T06:12:55;10.10;99.90
16229;DHT22;8222;51.462;12.630;2024-03-22T06:15:23;10.20;99.90
16229;DHT22;8222;51.462;12.630;2024-03-22T06:17:51;10.10;99.90
16229;DHT22;8222;51.462;12.630;2024-03-22T06:20:16;10.20;99.90
16229;DHT22;8222;51.462;12.630;2024-03-22T06:22:44;10.10;99.90
16229;DHT22;8222;51.462;12.630;2024-03-22T06:25:10;10.20;99.90
16229;DHT22;8222;51.462;12.630;2024-03-22T06:27:36;10.30;99.90
16229;DHT22;8222;51.462;12.630;2024-03-22T06:30:01;10.40;99.90
16229;DHT22;8222;51.462;12.630;2024-03-22T06:32:27;10.40;99.90
16229;DHT22;8222;51.462;12.630;2024-03-22T06:34:52;10.40;99.90
16229;DHT22;8222;51.462;12.630;2024-03-22T06:37:18;10.50;99.90
16229;DHT22;8222;51.462;12.630;2024-03-22T06:39:44;10.70;99.90
16229;DHT22;8222;51.462;12.630;2024-03-22T06:42:09;10.70;99.90
16229;DHT22;8222;51.462;12.630;2024-03-22T06:44:35;10.80;99.90
16229;DHT22;8222;51.462;12.630;2024-03-22T06:47:03;10.80;99.90
16229;DHT22;8222;51.462;12.630;2024-03-22T06:49:28;11.00;99.90
16229;DHT22;8222;51.462;12.630;2024-03-22T06:51:54;11.00;99.90
16229;DHT22;8222;51.462;12.630;2024-03-22T06:54:19;11.10;99.90
16229;DHT22;8222;51.462;12.630;2024-03-22T06:56:45;11.30;99.90
16229;DHT22;8222;51.462;12.630;2024-03-22T06:59:11;11.30;99.90
16229;DHT22;8222;51.462;12.630;2024-03-22T07:01:36;11.40;99.90
16229;DHT22;8222;51.462;12.630;2024-03-22T07:04:04;11.50;99.90
16229;DHT22;8222;51.462;12.630;2024-03-22T07:06:32;11.60;99.90
16229;DHT22;8222;51.462;12.630;2024-03-22T07:09:00;11.60;99.90
16229;DHT22;8222;51.462;12.630;2024-03-22T07:11:28;11.70;99.90
16229;DHT22;8222;51.462;12.630;2024-03-22T07:13:53;11.80;99.90
16229;DHT22;8222;51.462;12.630;2024-03-22T07:16:21;11.90;99.90
16229;DHT22;8222;51.462;12.630;2024-03-22T07:18:47;12.00;99.90
16229;DHT22;8222;51.462;12.630;2024-03-22T07:21:14;12.20;99.90
16229;DHT22;8222;51.462;12.630;2024-03-22T07:23:42;12.10;99.90
16229;DHT22;8222;51.462;12.630;2024-03-22T07:26:10;12.20;99.90
16229;DHT22;8222;51.462;12.630;2024-03-22T07:28:38;12.30;99.90
16229;DHT22;8222;51.462;12.630;2024-03-22T07:31:03;12.30;99.90
16229;DHT22;8222;51.462;12.630;2024-03-22T07:33:31;12.30;99.90
16229;DHT22;8222;51.462;12.630;2024-03-22T07:36:03;12.40;99.90
16229;DHT22;8222;51.462;12.630;2024-03-22T07:38:28;12.40;99.90
16229;DHT22;8222;51.462;12.630;2024-03-22T07:40:56;12.50;99.90
16229;DHT22;8222;51.462;12.630;2024-03-22T07:43:22;12.60;99.90
16229;DHT22;8222;51.462;12.630;2024-03-22T07:45:50;12.60;99.90
16229;DHT22;8222;51.462;12.630;2024-03-22T07:48:15;12.90;99.90
16229;DHT22;8222;51.462;12.630;2024-03-22T07:50:43;13.40;99.90
16229;DHT22;8222;51.462;12.630;2024-03-22T07:53:11;12.80;99.90
16229;DHT22;8222;51.462;12.630;2024-03-22T07:55:39;13.00;99.90
16229;DHT22;8222;51.462;12.630;2024-03-22T07:58:04;13.20;99.90
16229;DHT22;8222;51.462;12.630;2024-03-22T08:00:31;13.30;99.90
16229;DHT22;8222;51.462;12.630;2024-03-22T08:02:56;13.30;99.90
16229;DHT22;8222;51.462;12.630;2024-03-22T08:05:22;13.30;99.90
16229;DHT22;8222;51.462;12.630;2024-03-22T08:07:50;13.30;99.90
16229;DHT22;8222;51.462;12.630;2024-03-22T08:10:18;13.30;99.90
16229;DHT22;8222;51.462;12.630;2024-03-22T08:12:43;13.30;99.90
16229;DHT22;8222;51.462;12.630;2024-03-22T08:15:12;13.30;99.90
16229;DHT22;8222;51.462;12.630;2024-03-22T08:17:40;13.50;99.90
16229;DHT22;8222;51.462;12.630;2024-03-22T08:20:06;13.40;99.90
16229;DHT22;8222;51.462;12.630;2024-03-22T08:22:32;13.50;99.90
16229;DHT22;8222;51.462;12.630;2024-03-22T08:25:00;13.60;99.90
16229;DHT22;8222;51.462;12.630;2024-03-22T08:27:27;13.60;99.90
16229;DHT22;8222;51.462;12.630;2024-03-22T08:29:55;13.80;99.90
16229;DHT22;8222;51.462;12.630;2024-03-22T08:32:23;13.90;99.90
16229;DHT22;8222;51.462;12.630;2024-03-22T08:34:51;14.00;99.90
16229;DHT22;8222;51.462;12.630;2024-03-22T08:37:17;14.20;99.90
16229;DHT22;8222;51.462;12.630;2024-03-22T08:39:45;14.40;99.90
16229;DHT22;8222;51.462;12.630;2024-03-22T08:42:11;14.40;99.90
16229;DHT22;8222;51.462;12.630;2024-03-22T08:44:36;14.60;99.90
16229;DHT22;8222;51.462;12.630;2024-03-22T08:47:02;14.70;99.90
16229;DHT22;8222;51.462;12.630;2024-03-22T08:49:28;14.70;99.90
16229;DHT22;8222;51.462;12.630;2024-03-22T08:51:56;14.80;99.90
16229;DHT22;8222;51.462;12.630;2024-03-22T08:54:24;14.90;99.90
16229;DHT22;8222;51.462;12.630;2024-03-22T08:56:50;14.90;99.90
16229;DHT22;8222;51.462;12.630;2024-03-22T08:59:15;15.10;99.90
16229;DHT22;8222;51.462;12.630;2024-03-22T09:01:43;15.10;99.90
16229;DHT22;8222;51.462;12.630;2024-03-22T09:04:13;15.10;99.90
16229;DHT22;8222;51.462;12.630;2024-03-22T09:06:40;15.10;99.90
16229;DHT22;8222;51.462;12.630;2024-03-22T09:09:06;15.10;99.90
16229;DHT22;8222;51.462;12.630;2024-03-22T09:11:34;15.10;99.90
16229;DHT22;8222;51.462;12.630;2024-03-22T09:14:00;15.20;99.90
16229;DHT22;8222;51.462;12.630;2024-03-22T09:16:28;15.30;99.90
16229;DHT22;8222;51.462;12.630;2024-03-22T09:18:53;15.40;99.90
16229;DHT22;8222;51.462;12.630;2024-03-22T09:21:21;15.50;99.90
16229;DHT22;8222;51.462;12.630;2024-03-22T09:23:52;15.70;99.90
16229;DHT22;8222;51.462;12.630;2024-03-22T09:26:17;15.80;99.90
16229;DHT22;8222;51.462;12.630;2024-03-22T09:28:48;16.10;99.90
16229;DHT22;8222;51.462;12.630;2024-03-22T09:31:18;16.20;99.90
16229;DHT22;8222;51.462;12.630;2024-03-22T09:33:43;16.30;99.90
16229;DHT22;8222;51.462;12.630;2024-03-22T09:36:11;16.30;99.90
16229;DHT22;8222;51.462;12.630;2024-03-22T09:38:39;16.20;99.90
16229;DHT22;8222;51.462;12.630;2024-03-22T09:41:07;16.30;99.90
16229;DHT22;8222;51.462;12.630;2024-03-22T09:43:37;16.80;99.90
16229;DHT22;8222;51.462;12.630;2024-03-22T09:46:05;16.30;99.90
16229;DHT22;8222;51.462;12.630;2024-03-22T09:48:32;16.30;99.90
16229;DHT22;8222;51.462;12.630;2024-03-22T09:50:58;16.20;99.90
16229;DHT22;8222;51.462;12.630;2024-03-22T09:53:25;16.20;99.90
16229;DHT22;8222;51.462;12.630;2024-03-22T09:55:52;16.30;99.90
16229;DHT22;8222;51.462;12.630;2024-03-22T09:58:23;16.30;99.90
16229;DHT22;8222;51.462;12.630;2024-03-22T10:00:48;16.30;99.90
16229;DHT22;8222;51.462;12.630;2024-03-22T10:03:14;16.30;99.90
16229;DHT22;8222;51.462;12.630;2024-03-22T10:05:41;16.40;99.90
16229;DHT22;8222;51.462;12.630;2024-03-22T10:08:06;16.50;99.90
16229;DHT22;8222;51.462;12.630;2024-03-22T10:10:35;16.70;99.90
16229;DHT22;8222;51.462;12.630;2024-03-22T10:13:02;16.80;99.90
16229;DHT22;8222;51.462;12.630;2024-03-22T10:15:31;16.80;99.90
16229;DHT22;8222;51.462;12.630;2024-03-22T10:17:59;16.80;99.90
16229;DHT22;8222;51.462;12.630;2024-03-22T10:20:25;16.80;99.90
16229;DHT22;8222;51.462;12.630;2024-03-22T10:22:58;16.90;99.90
16229;DHT22;8222;51.462;12.630;2024-03-22T10:25:27;17.00;99.90
16229;DHT22;8222;51.462;12.630;2024-03-22T10:27:56;17.10;99.90
16229;DHT22;8222;51.462;12.630;2024-03-22T10:30:27;17.20;99.90
16229;DHT22;8222;51.462;12.630;2024-03-22T10:32:53;17.30;99.90
16229;DHT22;8222;51.462;12.630;2024-03-22T10:35:19;17.10;99.90
16229;DHT22;8222;51.462;12.630;2024-03-22T10:37:47;17.10;99.90
16229;DHT22;8222;51.462;12.630;2024-03-22T10:40:14;17.10;99.90
16229;DHT22;8222;51.462;12.630;2024-03-22T10:42:44;17.30;99.90
16229;DHT22;8222;51.462;12.630;2024-03-22T10:45:24;17.50;99.90
16229;DHT22;8222;51.462;12.630;2024-03-22T10:47:55;17.40;99.90
16229;DHT22;8222;51.462;12.630;2024-03-22T10:50:24;17.50;99.90
16229;DHT22;8222;51.462;12.630;2024-03-22T10:55:24;17.50;99.90
16229;DHT22;8222;51.462;12.630;2024-03-22T10:57:54;17.50;99.90
16229;DHT22;8222;51.462;12.630;2024-03-22T11:00:31;17.60;99.90
16229;DHT22;8222;51.462;12.630;2024-03-22T11:02:56;17.70;99.90
16229;DHT22;8222;51.462;12.630;2024-03-22T11:05:22;17.90;99.90
16229;DHT22;8222;51.462;12.630;2024-03-22T11:08:02;18.00;99.90
16229;DHT22;8222;51.462;12.630;2024-03-22T11:10:34;18.20;99.90
16229;DHT22;8222;51.462;12.630;2024-03-22T11:13:06;18.10;99.90
16229;DHT22;8222;51.462;12.630;2024-03-22T11:15:35;18.30;99.90
16229;DHT22;8222;51.462;12.630;2024-03-22T11:18:03;18.20;99.90
16229;DHT22;8222;51.462;12.630;2024-03-22T11:20:28;18.30;99.90
16229;DHT22;8222;51.462;12.630;2024-03-22T11:22:56;18.30;99.90
16229;DHT22;8222;51.462;12.630;2024-03-22T11:25:21;18.40;99.90
16229;DHT22;8222;51.462;12.630;2024-03-22T11:27:47;18.50;99.90
16229;DHT22;8222;51.462;12.630;2024-03-22T11:30:13;18.70;99.90
16229;DHT22;8222;51.462;12.630;2024-03-22T11:32:40;18.80;99.90
16229;DHT22;8222;51.462;12.630;2024-03-22T11:35:13;18.80;99.90
16229;DHT22;8222;51.462;12.630;2024-03-22T11:37:41;18.80;99.90
16229;DHT22;8222;51.462;12.630;2024-03-22T11:40:11;18.80;99.90
16229;DHT22;8222;51.462;12.630;2024-03-22T11:42:41;18.60;99.90
16229;DHT22;8222;51.462;12.630;2024-03-22T11:45:15;18.70;99.90
16229;DHT22;8222;51.462;12.630;2024-03-22T11:47:46;18.80;99.90
16229;DHT22;8222;51.462;12.630;2024-03-22T11:50:17;18.90;99.90
16229;DHT22;8222;51.462;12.630;2024-03-22T11:52:44;18.90;99.90
16229;DHT22;8222;51.462;12.630;2024-03-22T11:55:13;18.80;99.90
16229;DHT22;8222;51.462;12.630;2024-03-22T11:57:41;18.80;99.90
16229;DHT22;8222;51.462;12.630;2024-03-22T12:00:07;18.80;99.90
16229;DHT22;8222;51.462;12.630;2024-03-22T12:02:38;18.90;99.90
16229;DHT22;8222;51.462;12.630;2024-03-22T12:05:07;18.90;99.90
16229;DHT22;8222;51.462;12.630;2024-03-22T12:07:36;18.90;99.90
16229;DHT22;8222;51.462;12.630;2024-03-22T12:10:04;19.00;99.90
16229;DHT22;8222;51.462;12.630;2024-03-22T12:12:30;19.10;99.90
16229;DHT22;8222;51.462;12.630;2024-03-22T12:14:56;19.00;99.90
16229;DHT22;8222;51.462;12.630;2024-03-22T12:17:21;19.10;99.90
16229;DHT22;8222;51.462;12.630;2024-03-22T12:19:47;19.00;99.90
16229;DHT22;8222;51.462;12.630;2024-03-22T12:22:17;19.10;99.90
16229;DHT22;8222;51.462;12.630;2024-03-22T12:24:42;19.10;99.90
16229;DHT22;8222;51.462;12.630;2024-03-22T12:27:10;19.20;99.90
16229;DHT22;8222;51.462;12.630;2024-03-22T12:29:38;19.30;99.90
16229;DHT22;8222;51.462;12.630;2024-03-22T12:32:07;19.40;99.90
16229;DHT22;8222;51.462;12.630;2024-03-22T12:34:36;19.50;99.90
16229;DHT22;8222;51.462;12.630;2024-03-22T12:37:02;19.50;99.90
16229;DHT22;8222;51.462;12.630;2024-03-22T12:39:32;19.60;99.90
16229;DHT22;8222;51.462;12.630;2024-03-22T12:42:00;19.70;99.90
16229;DHT22;8222;51.462;12.630;2024-03-22T12:44:29;19.70;99.90
16229;DHT22;8222;51.462;12.630;2024-03-22T12:46:54;19.80;99.90
16229;DHT22;8222;51.462;12.630;2024-03-22T12:49:22;19.80;99.90
16229;DHT22;8222;51.462;12.630;2024-03-22T12:51:48;19.70;99.90
16229;DHT22;8222;51.462;12.630;2024-03-22T12:54:16;19.50;99.90
16229;DHT22;8222;51.462;12.630;2024-03-22T12:56:45;19.40;99.90
16229;DHT22;8222;51.462;12.630;2024-03-22T12:59:11;19.50;99.90
16229;DHT22;8222;51.462;12.630;2024-03-22T13:01:36;19.50;99.90
16229;DHT22;8222;51.462;12.630;2024-03-22T13:04:07;19.60;99.90
16229;DHT22;8222;51.462;12.630;2024-03-22T13:06:35;19.60;99.90
16229;DHT22;8222;51.462;12.630;2024-03-22T13:09:01;19.60;99.90
16229;DHT22;8222;51.462;12.630;2024-03-22T13:11:32;19.50;99.90
16229;DHT22;8222;51.462;12.630;2024-03-22T13:14:00;19.80;99.90
16229;DHT22;8222;51.462;12.630;2024-03-22T13:16:28;20.00;99.90
16229;DHT22;8222;51.462;12.630;2024-03-22T13:18:56;20.10;99.90
16229;DHT22;8222;51.462;12.630;2024-03-22T13:21:21;20.20;99.90
16229;DHT22;8222;51.462;12.630;2024-03-22T13:23:51;20.20;99.90
16229;DHT22;8222;51.462;12.630;2024-03-22T13:26:19;20.40;99.90
16229;DHT22;8222;51.462;12.630;2024-03-22T13:28:45;20.40;99.90
16229;DHT22;8222;51.462;12.630;2024-03-22T13:31:13;20.50;99.90
16229;DHT22;8222;51.462;12.630;2024-03-22T13:33:40;20.40;99.90
16229;DHT22;8222;51.462;12.630;2024-03-22T13:36:08;20.50;99.90
16229;DHT22;8222;51.462;12.630;2024-03-22T13:38:34;20.50;99.90
16229;DHT22;8222;51.462;12.630;2024-03-22T13:41:00;20.50;99.90
16229;DHT22;8222;51.462;12.630;2024-03-22T13:43:26;20.40;99.90
16229;DHT22;8222;51.462;12.630;2024-03-22T13:45:55;20.30;99.90
16229;DHT22;8222;51.462;12.630;2024-03-22T13:48:24;20.10;99.90
16229;DHT22;8222;51.462;12.630;2024-03-22T13:50:54;20.00;99.90
16229;DHT22;8222;51.462;12.630;2024-03-22T13:53:22;19.90;99.90
16229;DHT22;8222;51.462;12.630;2024-03-22T13:55:52;19.80;99.90
16229;DHT22;8222;51.462;12.630;2024-03-22T13:58:21;19.70;99.90
16229;DHT22;8222;51.462;12.630;2024-03-22T14:00:46;19.80;99.90
16229;DHT22;8222;51.462;12.630;2024-03-22T14:03:16;19.90;99.90
16229;DHT22;8222;51.462;12.630;2024-03-22T14:05:44;20.00;99.90
16229;DHT22;8222;51.462;12.630;2024-03-22T14:08:10;20.10;99.90
16229;DHT22;8222;51.462;12.630;2024-03-22T14:10:38;20.10;99.90
16229;DHT22;8222;51.462;12.630;2024-03-22T14:13:06;20.30;99.90
16229;DHT22;8222;51.462;12.630;2024-03-22T14:15:33;19.90;99.90
16229;DHT22;8222;51.462;12.630;2024-03-22T14:18:00;19.70;99.90
16229;DHT22;8222;51.462;12.630;2024-03-22T14:20:26;19.60;99.90
16229;DHT22;8222;51.462;12.630;2024-03-22T14:22:52;19.50;99.90
16229;DHT22;8222;51.462;12.630;2024-03-22T14:25:20;19.60;99.90
16229;DHT22;8222;51.462;12.630;2024-03-22T14:27:48;19.60;99.90
16229;DHT22;8222;51.462;12.630;2024-03-22T14:30:15;19.60;99.90
16229;DHT22;8222;51.462;12.630;2024-03-22T14:32:44;19.60;99.90
16229;DHT22;8222;51.462;12.630;2024-03-22T14:35:10;19.60;99.90
16229;DHT22;8222;51.462;12.630;2024-03-22T14:37:36;19.60;99.90
16229;DHT22;8222;51.462;12.630;2024-03-22T14:40:05;19.60;99.90
16229;DHT22;8222;51.462;12.630;2024-03-22T14:42:35;19.60;99.90
16229;DHT22;8222;51.462;12.630;2024-03-22T14:45:01;19.40;99.90
16229;DHT22;8222;51.462;12.630;2024-03-22T14:47:28;19.20;99.90
16229;DHT22;8222;51.462;12.630;2024-03-22T14:49:55;19.20;99.90
16229;DHT22;8222;51.462;12.630;2024-03-22T14:52:23;19.10;99.90
16229;DHT22;8222;51.462;12.630;2024-03-22T14:54:51;18.90;99.90
16229;DHT22;8222;51.462;12.630;2024-03-22T14:57:20;18.80;99.90
16229;DHT22;8222;51.462;12.630;2024-03-22T14:59:46;18.70;99.90
16229;DHT22;8222;51.462;12.630;2024-03-22T15:02:13;18.50;99.90
16229;DHT22;8222;51.462;12.630;2024-03-22T15:04:39;18.30;99.90
16229;DHT22;8222;51.462;12.630;2024-03-22T15:07:05;18.20;99.90
16229;DHT22;8222;51.462;12.630;2024-03-22T15:09:32;18.00;99.90
16229;DHT22;8222;51.462;12.630;2024-03-22T15:12:00;17.80;99.90
16229;DHT22;8222;51.462;12.630;2024-03-22T15:14:28;17.50;99.90
16229;DHT22;8222;51.462;12.630;2024-03-22T15:16:57;17.50;99.90
16229;DHT22;8222;51.462;12.630;2024-03-22T15:19:25;17.40;99.90
16229;DHT22;8222;51.462;12.630;2024-03-22T15:21:51;17.30;99.90
16229;DHT22;8222;51.462;12.630;2024-03-22T15:24:17;17.30;99.90
16229;DHT22;8222;51.462;12.630;2024-03-22T15:26:45;17.30;99.90
16229;DHT22;8222;51.462;12.630;2024-03-22T15:29:11;17.40;99.90
16229;DHT22;8222;51.462;12.630;2024-03-22T15:31:37;17.40;99.90
16229;DHT22;8222;51.462;12.630;2024-03-22T15:34:02;17.50;99.90
16229;DHT22;8222;51.462;12.630;2024-03-22T15:36:28;17.50;99.90
16229;DHT22;8222;51.462;12.630;2024-03-22T15:38:56;17.50;99.90
16229;DHT22;8222;51.462;12.630;2024-03-22T15:41:23;17.50;99.90